Depesze METAR lotnisk w Polsce

METAR – format kodowanego raportu o pogodzie używany w meteorologii lotniczej i prognozie pogody. METAR jest akronimem od ang. Meteorological Aerodrome Report. Typowy METAR zawiera informację o temperaturze, ciśnieniu, temperaturze punktu rosy, sile i kierunku wiatru, opadzie, pokrywie chmur, wysokości podstawy chmur, widzialności, lecz może zawierać też inne informacje (np. stan dróg startowych).

Warszawa-Okęcie (EPWA)

METAR = EPWA 290500Z 14007KT CAVOK 21/19 Q0998 NOSIG

STACJA......... EPWA - Warszawa-Okęcie (WAW)
POMIAR......... Thu Jun 29, 07:00 CEST
WIATR.......... południowo wschodni (SE) z prędkością 13 km/h
WIDZIALNOŚĆ.... powyżej 10 kilometrów
CHMURY......... bezchmurne niebo
TEMPERATURA.... 21°C
T.PUNKTU ROSY.. 19°C
WILGOTNOŚĆ..... 88%
CIŚNIENIE...... 998 hPa
CIŚN.BEZWZGL... 985 hPa
PROGNOZA....... bez nagłych zmian w ciągu 2h

Sprawdź też: Prognoza pogody Warszawa

Warszawa-Modlin (EPMO)

METAR = EPMO 290430Z 09009KT 9999 -RA BKN003 18/18 Q0998 =

STACJA......... EPMO - Warszawa-Modlin (WMI)
POMIAR......... Thu Jun 29, 06:30 CEST
WIATR.......... wschodni (E) z prędkością 17 km/h
WIDZIALNOŚĆ.... powyżej 10 kilometrów
WARUNKI........ słaby: deszcz 
CHMURY......... zachmurzenie średnie (5/8-7/8)
TEMPERATURA.... 18°C
T.PUNKTU ROSY.. 18°C
WILGOTNOŚĆ..... 100%
CIŚNIENIE...... 998 hPa
CIŚN.BEZWZGL... 986 hPa

Sprawdź też: Prognoza pogody Nowy Dwór Mazowiecki

Kraków-Balice (EPKK)

METAR = EPKK 290500Z 07008KT CAVOK 20/18 Q0997

STACJA......... EPKK - Kraków-Balice (KRK)
POMIAR......... Thu Jun 29, 07:00 CEST
WIATR.......... wschodni północno-wschodni (ENE) z prędkością 15 km/h
WIDZIALNOŚĆ.... powyżej 10 kilometrów
CHMURY......... bezchmurne niebo
TEMPERATURA.... 20°C
T.PUNKTU ROSY.. 18°C
WILGOTNOŚĆ..... 88%
CIŚNIENIE...... 997 hPa
CIŚN.BEZWZGL... 970 hPa

Sprawdź też: Prognoza pogody Kraków

Łódź-Lublinek (EPLL)

METAR = EPLL 290500Z 12006KT 080V160 CAVOK 21/17 Q0997

STACJA......... EPLL - Łódź-Lublinek (LCJ)
POMIAR......... Thu Jun 29, 07:00 CEST
WIATR.......... wschodni południowo-wschodni (ESE) z prędkością 11 km/h
WIDZIALNOŚĆ.... powyżej 10 kilometrów
CHMURY......... bezchmurne niebo
TEMPERATURA.... 21°C
T.PUNKTU ROSY.. 17°C
WILGOTNOŚĆ..... 78%
CIŚNIENIE...... 997 hPa
CIŚN.BEZWZGL... 976 hPa

Sprawdź też: Prognoza pogody Łódź

Wrocław-Strachowice (EPWR)

METAR = EPWR 290500Z 13003KT 100V170 CAVOK 20/18 Q0993

STACJA......... EPWR - Wrocław-Strachowice (WRO)
POMIAR......... Thu Jun 29, 07:00 CEST
WIATR.......... południowo wschodni (SE) z prędkością 6 km/h
WIDZIALNOŚĆ.... powyżej 10 kilometrów
CHMURY......... bezchmurne niebo
TEMPERATURA.... 20°C
T.PUNKTU ROSY.. 18°C
WILGOTNOŚĆ..... 88%
CIŚNIENIE...... 993 hPa
CIŚN.BEZWZGL... 979 hPa

Sprawdź też: Prognoza pogody Wrocław

Katowice-Pyrzowice (EPKT)

METAR = EPKT 290500Z 13010KT CAVOK 23/15 Q0997

STACJA......... EPKT - Katowice-Pyrzowice (KTW)
POMIAR......... Thu Jun 29, 07:00 CEST
WIATR.......... południowo wschodni (SE) z prędkością 19 km/h
WIDZIALNOŚĆ.... powyżej 10 kilometrów
CHMURY......... bezchmurne niebo
TEMPERATURA.... 23°C
T.PUNKTU ROSY.. 15°C
WILGOTNOŚĆ..... 61%
CIŚNIENIE...... 997 hPa
CIŚN.BEZWZGL... 963 hPa

Sprawdź też: Prognoza pogody Katowice

Gdańsk (EPGD)

METAR = EPGD 290500Z 11012KT 9999 BKN005 18/17 Q0998

STACJA......... EPGD - Gdańsk im. Lecha Wałęsy (GDN)
POMIAR......... Thu Jun 29, 07:00 CEST
WIATR.......... wschodni południowo-wschodni (ESE) z prędkością 22 km/h
WIDZIALNOŚĆ.... powyżej 10 kilometrów
CHMURY......... zachmurzenie średnie (5/8-7/8)
TEMPERATURA.... 18°C
T.PUNKTU ROSY.. 17°C
WILGOTNOŚĆ..... 94%
CIŚNIENIE...... 998 hPa
CIŚN.BEZWZGL... 981 hPa

Sprawdź też: Prognoza pogody Gdańsk

Poznań-Ławica (EPPO)

METAR = EPPO 290500Z 10009KT 9999 FEW020 20/17 Q0993

STACJA......... EPPO - Poznań-Ławica (POZ)
POMIAR......... Thu Jun 29, 07:00 CEST
WIATR.......... wschodni (E) z prędkością 17 km/h
WIDZIALNOŚĆ.... powyżej 10 kilometrów
CHMURY......... zachmurzenie niewielkie (1/8-2/8)
TEMPERATURA.... 20°C
T.PUNKTU ROSY.. 17°C
WILGOTNOŚĆ..... 83%
CIŚNIENIE...... 993 hPa
CIŚN.BEZWZGL... 982 hPa

Sprawdź też: Prognoza pogody Poznań

Rzeszów-Jasionka (EPRZ)

METAR = EPRZ 290500Z 12009KT 080V160 CAVOK 23/19 Q1001

STACJA......... EPRZ - Rzeszów-Jasionka (RZE)
POMIAR......... Thu Jun 29, 07:00 CEST
WIATR.......... wschodni południowo-wschodni (ESE) z prędkością 17 km/h
WIDZIALNOŚĆ.... powyżej 10 kilometrów
CHMURY......... bezchmurne niebo
TEMPERATURA.... 23°C
T.PUNKTU ROSY.. 19°C
WILGOTNOŚĆ..... 78%
CIŚNIENIE...... 1001 hPa
CIŚN.BEZWZGL... 977 hPa

Sprawdź też: Prognoza pogody Rzeszów

Szczecin-Goleniów (EPSC)

METAR = EPSC 290500Z 06005KT 030V100 9999 FEW006 19/18 Q0994

STACJA......... EPSC - Szczecin-Goleniów (SZZ)
POMIAR......... Thu Jun 29, 07:00 CEST
WIATR.......... wschodni północno-wschodni (ENE) z prędkością 9 km/h
WIDZIALNOŚĆ.... powyżej 10 kilometrów
CHMURY......... zachmurzenie niewielkie (1/8-2/8)
TEMPERATURA.... 19°C
T.PUNKTU ROSY.. 18°C
WILGOTNOŚĆ..... 94%
CIŚNIENIE...... 994 hPa
CIŚN.BEZWZGL... 989 hPa

Sprawdź też: Prognoza pogody Szczecin

Lublin-Świdnik (EPLB)

METAR = EPLB 290430Z 14004KT 9999 FEW060CB 21/19 Q1001 =

STACJA......... EPLB - Lublin-Świdnik (LUZ)
POMIAR......... Thu Jun 29, 06:30 CEST
WIATR.......... południowo wschodni (SE) z prędkością 7 km/h
WIDZIALNOŚĆ.... powyżej 10 kilometrów
CHMURY......... zachmurzenie niewielkie (1/8-2/8)
TEMPERATURA.... 21°C
T.PUNKTU ROSY.. 19°C
WILGOTNOŚĆ..... 88%
CIŚNIENIE...... 1001 hPa
CIŚN.BEZWZGL... 978 hPa

Sprawdź też: Prognoza pogody Lublin

Bydgoszcz-Szwederowo (EPBY)

METAR = EPBY 290430Z 09008KT CAVOK 19/17 Q0996 =

STACJA......... EPBY - Bydgoszcz-Szwederowo (BZG)
POMIAR......... Thu Jun 29, 06:30 CEST
WIATR.......... wschodni (E) z prędkością 15 km/h
WIDZIALNOŚĆ.... powyżej 10 kilometrów
CHMURY......... bezchmurne niebo
TEMPERATURA.... 19°C
T.PUNKTU ROSY.. 17°C
WILGOTNOŚĆ..... 88%
CIŚNIENIE...... 996 hPa
CIŚN.BEZWZGL... 988 hPa

Sprawdź też: Prognoza pogody Bydgoszcz

Zielona Góra-Babimost (EPZG)

METAR = EPZG 290430Z 36005KT 2000 BR BKN002 OVC010 19/19 Q0993 =

STACJA......... EPZG - Zielona Góra-Babimost (IEG)
POMIAR......... Thu Jun 29, 06:30 CEST
WIATR.......... północny (N) z prędkością 9 km/h
WIDZIALNOŚĆ.... 2000 metrów
WARUNKI........ zamglenie 
CHMURY......... zachmurzenie całkowite (8/8)
TEMPERATURA.... 19°C
T.PUNKTU ROSY.. 19°C
WILGOTNOŚĆ..... 100%
CIŚNIENIE...... 993 hPa
CIŚN.BEZWZGL... 986 hPa

Sprawdź też: Prognoza pogody Zielona Góra

Szymany Olsztyn-Mazury (EPSY)

METAR = EPSY 290430Z 10008KT 060V160 9999 BKN006 17/17 Q0999=

STACJA......... EPSY - Olsztyn-Mazury (SZY)
POMIAR......... Thu Jun 29, 06:30 CEST
WIATR.......... wschodni (E) z prędkością 15 km/h
WIDZIALNOŚĆ.... powyżej 10 kilometrów
CHMURY......... zachmurzenie średnie (5/8-7/8)
TEMPERATURA.... 17°C
T.PUNKTU ROSY.. 17°C
WILGOTNOŚĆ..... 100%
CIŚNIENIE...... 999 hPa
CIŚN.BEZWZGL... 983 hPa

Sprawdź też: Prognoza pogody Olsztyn